Terminal Aerodrome Forecast
Issued by NWS

Home | Current Version | Previous Version | Text Only | Print | Product List | Glossary Off
Versions: 1 2 3 4 5 6 7 8 9 10 11 12

875
FTUS43 KMPX 151728
TAFRWF
TAF
KRWF 151728Z 1518/1618 28011KT P6SM FEW150
     FM160100 27006KT P6SM SKC
     FM161300 22007KT P6SM SCT250=

USA.gov is the U.S. government's official web portal to all federal, state and local government web resources and services.